createdAt,value
2018-05-09T00:00:22.621Z,1.77
2018-05-09T00:02:48.822Z,2.00
2018-05-09T00:05:15.042Z,1.83
2018-05-09T00:07:41.239Z,1.97
2018-05-09T00:10:08.398Z,1.93
2018-05-09T00:12:34.606Z,1.90
2018-05-09T00:15:00.797Z,1.90
2018-05-09T00:17:26.988Z,1.63
2018-05-09T00:19:53.920Z,2.00
2018-05-09T00:22:20.129Z,2.03
2018-05-09T00:24:46.302Z,2.00
2018-05-09T00:27:13.230Z,1.90
2018-05-09T00:29:39.445Z,2.00
2018-05-09T00:32:05.630Z,1.83
2018-05-09T00:34:31.957Z,2.20
2018-05-09T00:36:58.882Z,2.00
2018-05-09T00:41:46.018Z,1.93
2018-05-09T00:44:12.142Z,1.87
2018-05-09T00:46:38.345Z,1.90
2018-05-09T00:49:04.546Z,1.83
2018-05-09T00:51:31.491Z,2.27
2018-05-09T00:54:10.613Z,1.70
2018-05-09T00:56:36.795Z,2.00
2018-05-09T00:59:03.014Z,2.27
2018-05-09T01:01:29.199Z,1.87
2018-05-09T01:03:55.385Z,1.97
2018-05-09T01:06:22.078Z,1.80
2018-05-09T01:08:48.285Z,2.00
2018-05-09T01:11:14.489Z,1.90
2018-05-09T01:13:40.660Z,2.33
2018-05-09T01:16:06.863Z,1.93
2018-05-09T01:18:33.050Z,1.87
2018-05-09T01:20:59.386Z,1.90
2018-05-09T01:23:25.593Z,2.00
2018-05-09T01:25:51.769Z,2.13
2018-05-09T01:28:18.668Z,2.20
2018-05-09T01:30:44.838Z,2.47
2018-05-09T01:33:11.790Z,2.07
2018-05-09T01:35:38.713Z,2.53
2018-05-09T01:38:04.901Z,2.00
2018-05-09T01:40:31.113Z,2.17
2018-05-09T01:42:58.157Z,2.10
2018-05-09T01:45:25.098Z,2.40
2018-05-09T01:47:51.613Z,2.20
2018-05-09T01:50:17.800Z,2.00
2018-05-09T01:52:43.982Z,2.13
2018-05-09T01:55:10.158Z,2.33
2018-05-09T01:57:36.344Z,2.57
2018-05-09T02:00:02.829Z,2.63
2018-05-09T02:02:29.024Z,2.37
2018-05-09T02:04:55.217Z,2.57
2018-05-09T02:07:21.410Z,2.30
2018-05-09T02:09:48.324Z,2.50
2018-05-09T02:12:14.496Z,2.43
2018-05-09T02:14:41.463Z,2.90
2018-05-09T02:17:07.670Z,2.33
2018-05-09T02:19:33.845Z,2.93
2018-05-09T02:22:00.014Z,2.40
2018-05-09T02:24:26.202Z,3.23
2018-05-09T02:26:52.373Z,2.70
2018-05-09T02:29:18.638Z,2.50
2018-05-09T02:31:45.561Z,2.67
2018-05-09T02:34:11.742Z,2.90
2018-05-09T02:36:38.654Z,3.00
2018-05-09T02:39:04.853Z,3.07
2018-05-09T02:41:31.100Z,2.80
2018-05-09T02:43:57.252Z,2.93
2018-05-09T02:46:23.416Z,2.30
2018-05-09T02:48:50.619Z,2.77
2018-05-09T02:51:16.792Z,2.63
2018-05-09T02:53:43.749Z,2.50
2018-05-09T02:56:10.657Z,2.43
2018-05-09T02:58:36.834Z,2.53
2018-05-09T03:01:03.750Z,3.00
2018-05-09T03:03:29.938Z,3.23
2018-05-09T03:05:56.148Z,3.60
2018-05-09T03:08:23.068Z,3.63
2018-05-09T03:10:49.253Z,4.30
2018-05-09T03:13:15.452Z,4.47
2018-05-09T03:15:42.364Z,4.23
2018-05-09T03:18:08.570Z,4.23
2018-05-09T03:20:34.755Z,3.40
2018-05-09T03:23:00.938Z,3.50
2018-05-09T03:25:27.123Z,3.30
2018-05-09T03:27:53.318Z,3.43
2018-05-09T03:30:19.505Z,2.70
2018-05-09T03:32:46.430Z,2.70
2018-05-09T03:35:13.377Z,3.00
2018-05-09T03:37:39.579Z,3.23
2018-05-09T03:40:05.769Z,3.60
2018-05-09T03:42:32.710Z,3.43
2018-05-09T03:44:59.642Z,3.40
2018-05-09T03:47:25.828Z,3.10
2018-05-09T03:49:52.021Z,2.50
2018-05-09T03:52:18.214Z,2.37
2018-05-09T03:54:44.474Z,2.20
2018-05-09T03:57:10.701Z,2.10
2018-05-09T03:59:37.001Z,2.10
2018-05-09T04:02:15.510Z,1.90
2018-05-09T04:04:54.205Z,1.90
2018-05-09T04:07:33.601Z,2.10
2018-05-09T04:09:59.795Z,1.80
2018-05-09T04:12:26.092Z,2.10
2018-05-09T04:14:52.343Z,2.23
2018-05-09T04:17:18.485Z,2.00
2018-05-09T04:19:44.701Z,2.20
2018-05-09T04:22:11.626Z,1.70
2018-05-09T04:24:37.803Z,2.47
2018-05-09T04:27:03.990Z,1.80
2018-05-09T04:29:31.666Z,1.93
2018-05-09T04:31:58.590Z,1.87
2018-05-09T04:34:24.764Z,2.00
2018-05-09T04:36:50.983Z,1.70
2018-05-09T04:39:17.930Z,1.80
2018-05-09T04:41:44.111Z,2.20
2018-05-09T04:44:10.298Z,2.10
2018-05-09T04:46:37.236Z,2.10
2018-05-09T04:49:05.078Z,2.10
2018-05-09T04:51:31.259Z,2.03
2018-05-09T04:53:58.205Z,2.00
2018-05-09T04:56:25.150Z,1.97
2018-05-09T04:58:51.346Z,2.17
2018-05-09T05:01:17.553Z,2.10
2018-05-09T05:03:43.728Z,1.83
2018-05-09T05:06:09.910Z,1.70
2018-05-09T05:08:36.084Z,1.90
2018-05-09T05:11:02.269Z,1.73
2018-05-09T05:13:28.497Z,1.73
2018-05-09T05:15:55.419Z,2.00
2018-05-09T05:18:21.610Z,1.90
2018-05-09T05:20:47.793Z,1.60
2018-05-09T05:23:14.721Z,1.80
2018-05-09T05:25:40.945Z,1.50
2018-05-09T05:28:07.125Z,1.87
2018-05-09T05:30:34.050Z,1.70
2018-05-09T05:33:00.978Z,1.60
2018-05-09T05:35:27.153Z,1.70
2018-05-09T05:37:54.112Z,1.50
2018-05-09T05:40:21.033Z,1.80
2018-05-09T05:42:47.213Z,1.80
2018-05-09T05:45:13.527Z,1.47
2018-05-09T05:47:40.361Z,1.60
2018-05-09T05:50:06.863Z,1.70
2018-05-09T05:52:33.028Z,1.80
2018-05-09T05:54:59.265Z,1.60
2018-05-09T05:57:26.213Z,1.73
2018-05-09T05:59:52.385Z,1.80
2018-05-09T06:02:18.592Z,1.67
2018-05-09T06:04:45.518Z,1.70
2018-05-09T06:07:11.694Z,1.60
2018-05-09T06:09:37.885Z,1.70
2018-05-09T06:12:04.074Z,1.77
2018-05-09T06:14:30.293Z,1.60
2018-05-09T06:16:56.487Z,1.87
2018-05-09T06:19:23.432Z,1.70
2018-05-09T06:21:50.358Z,1.70
2018-05-09T06:24:16.613Z,1.80
2018-05-09T06:26:42.756Z,1.83
2018-05-09T06:29:09.045Z,1.80
2018-05-09T06:31:35.263Z,1.80
2018-05-09T06:34:01.449Z,1.83
2018-05-09T06:36:27.643Z,1.60
2018-05-09T06:38:53.820Z,1.70
2018-05-09T06:41:20.772Z,1.80
2018-05-09T06:43:47.736Z,1.83
2018-05-09T06:46:14.665Z,1.67
2018-05-09T06:48:40.842Z,1.80
2018-05-09T06:51:07.033Z,1.90
2018-05-09T06:53:33.222Z,1.87
2018-05-09T06:55:59.431Z,1.90
2018-05-09T06:58:25.617Z,1.80
2018-05-09T07:00:51.838Z,2.00
2018-05-09T07:03:18.050Z,2.17
2018-05-09T07:05:44.234Z,1.77
2018-05-09T07:08:10.430Z,1.80
2018-05-09T07:10:36.608Z,1.60
2018-05-09T07:13:03.550Z,2.13
2018-05-09T07:15:30.548Z,1.80
2018-05-09T07:17:56.730Z,1.83
2018-05-09T07:20:22.922Z,1.77
2018-05-09T07:22:49.481Z,2.00
2018-05-09T07:25:15.875Z,2.00
2018-05-09T07:27:42.191Z,2.10
2018-05-09T07:30:08.405Z,2.00
2018-05-09T07:32:35.340Z,1.70
2018-05-09T07:35:01.569Z,2.10
2018-05-09T07:37:27.736Z,1.97
2018-05-09T07:39:54.651Z,1.80
2018-05-09T07:42:20.842Z,1.83
2018-05-09T07:44:47.022Z,1.80
2018-05-09T07:47:13.241Z,1.90
2018-05-09T07:49:39.420Z,1.80
2018-05-09T07:52:06.433Z,1.73
2018-05-09T07:54:33.325Z,2.00
2018-05-09T07:57:00.278Z,1.73
2018-05-09T07:59:27.222Z,2.00
2018-05-09T08:01:54.144Z,1.90
2018-05-09T08:04:20.337Z,1.80
2018-05-09T08:06:46.540Z,1.90
2018-05-09T08:09:13.452Z,1.80
2018-05-09T08:11:39.646Z,1.83
2018-05-09T08:14:05.827Z,1.87
2018-05-09T08:16:32.041Z,1.80
2018-05-09T08:18:58.225Z,2.10
2018-05-09T08:21:25.146Z,1.80
2018-05-09T08:23:51.395Z,1.90
2018-05-09T08:26:17.527Z,2.17
2018-05-09T08:28:44.477Z,2.00
2018-05-09T08:31:11.391Z,1.90
2018-05-09T08:33:37.579Z,2.03
2018-05-09T08:36:03.791Z,2.00
2018-05-09T08:38:30.717Z,2.00
2018-05-09T08:40:56.922Z,1.93
2018-05-09T08:43:23.194Z,1.93
2018-05-09T08:45:50.042Z,2.43
2018-05-09T08:48:16.226Z,1.87
2018-05-09T08:50:42.429Z,1.70
2018-05-09T08:53:09.382Z,1.80
2018-05-09T08:55:36.303Z,1.90
2018-05-09T08:58:02.594Z,1.70
2018-05-09T09:00:28.722Z,1.87
2018-05-09T09:02:54.906Z,2.13
2018-05-09T09:05:21.097Z,1.60
2018-05-09T09:07:47.309Z,1.83
2018-05-09T09:10:13.486Z,1.57
2018-05-09T09:12:39.683Z,1.93
2018-05-09T09:15:05.857Z,1.77
2018-05-09T09:17:32.078Z,1.67
2018-05-09T09:19:58.404Z,1.90
2018-05-09T09:22:24.593Z,1.70
2018-05-09T09:24:51.534Z,1.70
2018-05-09T09:27:17.729Z,1.70
2018-05-09T09:29:43.914Z,2.00
2018-05-09T09:32:10.869Z,2.00
2018-05-09T09:34:37.797Z,1.67
2018-05-09T09:37:04.714Z,1.60
2018-05-09T09:39:30.898Z,1.73
2018-05-09T09:41:57.828Z,1.87
2018-05-09T09:44:24.055Z,1.70
2018-05-09T09:46:50.978Z,1.67
2018-05-09T09:49:17.148Z,1.90
2018-05-09T09:51:44.094Z,1.70
2018-05-09T09:54:10.282Z,2.30
2018-05-09T09:56:36.474Z,1.77
2018-05-09T09:59:03.729Z,1.80
2018-05-09T10:01:30.756Z,1.80
2018-05-09T10:03:56.875Z,1.40
2018-05-09T10:06:23.070Z,1.50
2018-05-09T10:08:49.253Z,1.90
2018-05-09T10:11:16.174Z,1.70
2018-05-09T10:13:42.506Z,1.70
2018-05-09T10:16:08.723Z,1.77
2018-05-09T10:18:34.930Z,2.00
2018-05-09T10:21:01.874Z,1.80
2018-05-09T10:23:28.800Z,1.80
2018-05-09T10:25:54.989Z,1.73
2018-05-09T10:28:21.174Z,1.90
2018-05-09T10:30:48.130Z,1.93
2018-05-09T10:33:15.049Z,1.97
2018-05-09T10:35:41.234Z,1.90
2018-05-09T10:38:07.417Z,1.90
2018-05-09T10:40:33.599Z,1.67
2018-05-09T10:42:59.801Z,1.73
2018-05-09T10:45:27.462Z,2.00
2018-05-09T10:47:53.644Z,1.80
2018-05-09T10:50:19.847Z,1.90
2018-05-09T10:52:46.859Z,1.83
2018-05-09T10:55:13.059Z,1.90
2018-05-09T10:57:39.220Z,2.07
2018-05-09T11:00:05.409Z,1.80
2018-05-09T11:02:32.346Z,2.03
2018-05-09T11:04:59.341Z,1.70
2018-05-09T11:07:26.228Z,1.70
2018-05-09T11:09:52.412Z,1.83
2018-05-09T11:12:18.597Z,1.90
2018-05-09T11:14:45.537Z,1.90
2018-05-09T11:17:11.733Z,2.67
2018-05-09T11:19:37.963Z,2.07
2018-05-09T11:22:04.148Z,1.90
2018-05-09T11:24:30.368Z,1.90
2018-05-09T11:26:56.535Z,1.80
2018-05-09T11:29:23.461Z,1.60
2018-05-09T11:31:49.702Z,2.00
2018-05-09T11:34:15.899Z,1.60
2018-05-09T11:36:42.078Z,1.63
2018-05-09T11:39:09.029Z,1.60
2018-05-09T11:41:35.951Z,1.70
2018-05-09T11:44:02.154Z,1.70
2018-05-09T11:46:28.333Z,1.70
2018-05-09T11:48:55.269Z,1.80
2018-05-09T11:51:21.460Z,1.70
2018-05-09T11:53:47.669Z,1.60
2018-05-09T11:56:14.590Z,2.03
2018-05-09T11:58:41.520Z,1.60
2018-05-09T12:01:07.693Z,1.60
2018-05-09T12:03:34.631Z,1.80
2018-05-09T12:06:01.572Z,1.70
2018-05-09T12:08:27.773Z,1.63
2018-05-09T12:10:54.038Z,1.80
2018-05-09T12:13:20.957Z,1.80
2018-05-09T12:15:47.154Z,1.60
2018-05-09T12:18:13.359Z,1.63
2018-05-09T12:20:39.541Z,1.57
2018-05-09T12:23:05.731Z,1.50
2018-05-09T12:25:32.667Z,1.50
2018-05-09T12:27:59.607Z,1.60
2018-05-09T12:30:25.783Z,1.80
2018-05-09T12:32:51.974Z,1.70
2018-05-09T12:35:18.175Z,1.50
2018-05-09T12:37:44.369Z,1.80
2018-05-09T12:40:11.303Z,1.60
2018-05-09T12:42:38.977Z,1.70
2018-05-09T12:45:05.913Z,1.33
2018-05-09T12:47:32.105Z,1.60
2018-05-09T12:49:58.288Z,1.70
2018-05-09T12:52:25.346Z,1.70
2018-05-09T12:54:52.265Z,1.60
2018-05-09T12:57:18.469Z,1.70
2018-05-09T12:59:44.647Z,1.60
2018-05-09T13:02:10.844Z,1.30
2018-05-09T13:04:37.021Z,1.70
2018-05-09T13:07:04.015Z,1.70
2018-05-09T13:09:30.211Z,1.60
2018-05-09T13:11:57.122Z,1.60
2018-05-09T13:14:23.296Z,1.53
2018-05-09T13:16:50.210Z,1.80
2018-05-09T13:19:16.441Z,1.60
2018-05-09T13:21:42.622Z,1.73
2018-05-09T13:24:08.807Z,1.63
2018-05-09T13:26:35.104Z,1.60
2018-05-09T13:29:01.287Z,1.70
2018-05-09T13:31:28.245Z,1.73
2018-05-09T13:33:55.185Z,1.47
2018-05-09T13:36:22.849Z,1.60
2018-05-09T13:38:49.035Z,1.67
2018-05-09T13:41:15.218Z,1.77
2018-05-09T13:43:41.638Z,1.50
2018-05-09T13:46:07.820Z,1.43
2018-05-09T13:48:34.022Z,1.50
2018-05-09T13:51:00.215Z,1.60
2018-05-09T13:53:26.405Z,1.73
2018-05-09T13:55:53.362Z,1.63
2018-05-09T13:58:20.293Z,1.77
2018-05-09T14:00:47.248Z,1.80
2018-05-09T14:03:13.431Z,1.70
2018-05-09T14:05:39.601Z,1.50
2018-05-09T14:08:05.796Z,1.40
2018-05-09T14:10:31.987Z,1.53
2018-05-09T14:12:58.911Z,1.70
2018-05-09T14:15:25.209Z,1.70
2018-05-09T14:17:51.385Z,1.57
2018-05-09T14:20:17.564Z,1.93
2018-05-09T14:22:43.761Z,1.53
2018-05-09T14:25:10.006Z,1.60
2018-05-09T14:27:36.947Z,1.50
2018-05-09T14:30:03.168Z,1.70
2018-05-09T14:32:30.855Z,1.80
2018-05-09T14:34:57.790Z,1.60
2018-05-09T14:37:23.995Z,1.60
2018-05-09T14:39:50.177Z,1.60
2018-05-09T14:42:17.098Z,2.07
2018-05-09T14:44:43.278Z,1.60
2018-05-09T14:47:09.461Z,1.60
2018-05-09T14:49:37.170Z,1.50
2018-05-09T14:52:03.353Z,1.60
2018-05-09T14:54:29.574Z,1.50
2018-05-09T14:56:55.776Z,1.63
2018-05-09T14:59:21.965Z,1.50
2018-05-09T15:01:48.889Z,1.47
2018-05-09T15:04:15.083Z,1.43
2018-05-09T15:06:41.298Z,1.30
2018-05-09T15:09:08.206Z,1.30
2018-05-09T15:11:34.384Z,1.43
2018-05-09T15:14:01.346Z,1.50
2018-05-09T15:16:27.522Z,1.60
2018-05-09T15:18:53.702Z,1.43
2018-05-09T15:21:20.630Z,1.30
2018-05-09T15:23:46.813Z,1.20
2018-05-09T15:26:12.992Z,1.37
2018-05-09T15:28:39.162Z,1.47
2018-05-09T15:31:05.351Z,1.50
2018-05-09T15:33:31.550Z,1.30
2018-05-09T15:35:57.741Z,1.60
2018-05-09T15:38:24.670Z,1.40
2018-05-09T15:40:50.872Z,1.60
2018-05-09T15:43:17.064Z,1.70
2018-05-09T15:45:43.995Z,1.60
2018-05-09T15:48:10.934Z,1.50
2018-05-09T15:50:37.114Z,1.57
2018-05-09T15:53:03.314Z,1.73
2018-05-09T15:55:30.250Z,1.50
2018-05-09T15:57:57.941Z,1.50
2018-05-09T16:00:24.863Z,1.50
2018-05-09T16:02:51.998Z,1.60
2018-05-09T16:05:18.173Z,1.47
2018-05-09T16:07:45.137Z,1.60
2018-05-09T16:10:11.330Z,1.40
2018-05-09T16:12:37.514Z,1.43
2018-05-09T16:15:03.702Z,1.40
2018-05-09T16:17:29.873Z,1.50
2018-05-09T16:19:56.079Z,1.50
2018-05-09T16:22:23.079Z,1.53
2018-05-09T16:24:49.950Z,1.40
2018-05-09T16:27:16.133Z,1.40
2018-05-09T16:29:42.309Z,1.50
2018-05-09T16:32:08.570Z,1.60
2018-05-09T16:34:35.513Z,1.50
2018-05-09T16:37:02.434Z,1.50
2018-05-09T16:39:28.635Z,1.97
2018-05-09T16:41:54.806Z,1.60
2018-05-09T16:44:21.014Z,1.40
2018-05-09T16:46:47.238Z,1.73
2018-05-09T16:49:13.717Z,1.50
2018-05-09T16:51:39.915Z,1.50
2018-05-09T16:54:06.164Z,1.50
2018-05-09T16:56:32.379Z,1.43
2018-05-09T16:58:58.580Z,1.50
2018-05-09T17:01:25.524Z,1.87
2018-05-09T17:03:53.188Z,1.50
2018-05-09T17:06:20.111Z,1.50
2018-05-09T17:08:46.318Z,1.50
2018-05-09T17:11:12.517Z,1.67
2018-05-09T17:13:39.459Z,1.47
2018-05-09T17:16:06.417Z,1.40
2018-05-09T17:18:33.345Z,1.50
2018-05-09T17:20:59.549Z,1.67
2018-05-09T17:23:25.733Z,1.20
2018-05-09T17:25:52.691Z,1.67
2018-05-09T17:28:18.882Z,1.70
2018-05-09T17:30:45.101Z,1.60
2018-05-09T17:33:11.285Z,1.67
2018-05-09T17:35:38.213Z,1.60
2018-05-09T17:38:05.152Z,1.60
2018-05-09T17:40:31.634Z,1.30
2018-05-09T17:42:57.849Z,1.43
2018-05-09T17:45:24.771Z,1.53
2018-05-09T17:47:50.944Z,1.40
2018-05-09T17:50:17.147Z,1.47
2018-05-09T17:52:44.069Z,1.33
2018-05-09T17:55:10.507Z,1.47
2018-05-09T17:57:36.684Z,1.57
2018-05-09T18:00:03.659Z,1.50
2018-05-09T18:02:29.836Z,1.50
2018-05-09T18:04:56.031Z,1.50
2018-05-09T18:07:22.206Z,1.50
2018-05-09T18:09:48.396Z,1.53
2018-05-09T18:12:14.582Z,1.50
2018-05-09T18:14:40.845Z,1.40
2018-05-09T18:17:06.970Z,1.63
2018-05-09T18:19:33.902Z,1.40
2018-05-09T18:22:00.828Z,1.80
2018-05-09T18:24:27.013Z,1.47
2018-05-09T18:26:53.346Z,1.50
2018-05-09T18:29:20.185Z,1.57
2018-05-09T18:31:47.119Z,1.40
2018-05-09T18:34:14.075Z,1.53
2018-05-09T18:36:41.010Z,1.60
2018-05-09T18:39:07.190Z,1.30
2018-05-09T18:41:33.621Z,1.77
2018-05-09T18:43:59.801Z,1.40
2018-05-09T18:46:26.055Z,1.50
2018-05-09T18:48:52.203Z,1.40
2018-05-09T18:51:19.126Z,1.50
2018-05-09T18:53:45.322Z,1.50
2018-05-09T18:56:11.530Z,1.43
2018-05-09T18:58:37.761Z,1.60
2018-05-09T19:01:03.953Z,1.50
2018-05-09T19:03:30.117Z,1.47
2018-05-09T19:05:57.063Z,1.40
2018-05-09T19:08:23.994Z,1.60
2018-05-09T19:10:50.206Z,1.70
2018-05-09T19:13:16.389Z,1.47
2018-05-09T19:15:42.576Z,1.60
2018-05-09T19:18:08.774Z,1.50
2018-05-09T19:20:34.944Z,1.80
2018-05-09T19:23:01.139Z,1.60
2018-05-09T19:25:27.322Z,1.67
2018-05-09T19:27:53.521Z,1.57
2018-05-09T19:30:19.693Z,1.70
2018-05-09T19:32:45.901Z,1.50
2018-05-09T19:35:12.083Z,1.50
2018-05-09T19:37:38.261Z,1.50
2018-05-09T19:40:04.453Z,1.60
2018-05-09T19:42:30.650Z,1.50
2018-05-09T19:44:56.851Z,1.30
2018-05-09T19:47:23.040Z,1.70
2018-05-09T19:49:49.993Z,1.57
2018-05-09T19:52:16.907Z,1.70
2018-05-09T19:54:43.826Z,1.57
2018-05-09T19:57:10.033Z,1.50
2018-05-09T19:59:36.290Z,1.67
2018-05-09T20:02:02.502Z,1.70
2018-05-09T20:04:28.699Z,1.90
2018-05-09T20:06:54.888Z,1.53
2018-05-09T20:09:21.064Z,1.60
2018-05-09T20:11:47.259Z,1.47
2018-05-09T20:14:13.513Z,1.60
2018-05-09T20:16:39.710Z,1.60
2018-05-09T20:19:05.900Z,1.60
2018-05-09T20:21:32.845Z,1.50
2018-05-09T20:23:59.030Z,1.90
2018-05-09T20:26:25.741Z,1.80
2018-05-09T20:28:58.762Z,1.80
2018-05-09T20:31:43.590Z,1.67
2018-05-09T20:34:10.514Z,1.67
2018-05-09T20:36:36.680Z,1.90
2018-05-09T20:39:02.896Z,1.80
2018-05-09T20:41:29.897Z,1.83
2018-05-09T20:43:56.061Z,1.60
2018-05-09T20:46:22.238Z,1.50
2018-05-09T20:48:48.417Z,1.70
2018-05-09T20:51:15.682Z,1.80
2018-05-09T20:53:41.875Z,1.80
2018-05-09T20:56:08.449Z,1.67
2018-05-09T20:58:34.617Z,1.90
2018-05-09T21:01:13.866Z,1.70
2018-05-09T21:03:40.094Z,1.90
2018-05-09T21:06:06.318Z,1.83
2018-05-09T21:08:33.249Z,2.00
2018-05-09T21:11:00.170Z,1.73
2018-05-09T21:13:26.390Z,1.90
2018-05-09T21:15:52.578Z,1.97
2018-05-09T21:18:19.497Z,2.00
2018-05-09T21:20:45.709Z,1.83
2018-05-09T21:23:11.922Z,1.70
2018-05-09T21:25:38.094Z,2.10
2018-05-09T21:28:04.322Z,1.90
2018-05-09T21:30:30.489Z,2.00
2018-05-09T21:32:57.426Z,2.00
2018-05-09T21:35:24.417Z,2.20
2018-05-09T21:37:51.346Z,2.10
2018-05-09T21:40:17.527Z,1.93
2018-05-09T21:42:43.705Z,2.20
2018-05-09T21:45:10.637Z,1.80
2018-05-09T21:47:36.812Z,2.23
2018-05-09T21:50:03.053Z,2.00
2018-05-09T21:52:29.231Z,1.73
2018-05-09T21:54:55.428Z,2.10
2018-05-09T21:57:21.949Z,2.13
2018-05-09T21:59:48.134Z,2.13
2018-05-09T22:02:14.347Z,2.23
2018-05-09T22:04:40.540Z,2.17
2018-05-09T22:07:06.731Z,2.20
2018-05-09T22:09:32.932Z,2.10
2018-05-09T22:11:59.109Z,2.20
2018-05-09T22:14:25.320Z,2.20
2018-05-09T22:16:51.500Z,2.10
2018-05-09T22:19:17.686Z,2.10
2018-05-09T22:21:43.874Z,2.23
2018-05-09T22:24:10.059Z,2.40
2018-05-09T22:26:36.289Z,2.27
2018-05-09T22:29:02.477Z,2.43
2018-05-09T22:31:28.671Z,2.50
2018-05-09T22:33:54.866Z,2.43
2018-05-09T22:36:21.051Z,2.30
2018-05-09T22:38:48.006Z,2.40
2018-05-09T22:41:14.223Z,2.30
2018-05-09T22:43:41.169Z,2.43
2018-05-09T22:46:07.498Z,2.40
2018-05-09T22:48:33.673Z,2.40
2018-05-09T22:50:59.869Z,2.70
2018-05-09T22:53:26.049Z,2.43
2018-05-09T22:55:52.298Z,2.47
2018-05-09T22:58:18.484Z,2.40
2018-05-09T23:00:45.405Z,2.57
2018-05-09T23:03:11.597Z,2.50
2018-05-09T23:05:37.777Z,2.40
2018-05-09T23:08:03.993Z,2.70
2018-05-09T23:10:30.190Z,3.00
2018-05-09T23:12:56.374Z,3.40
2018-05-09T23:15:22.579Z,3.00
2018-05-09T23:17:48.740Z,4.00
2018-05-09T23:20:14.969Z,3.97
2018-05-09T23:22:41.161Z,3.80
2018-05-09T23:25:07.361Z,4.10
2018-05-09T23:27:34.310Z,4.33
2018-05-09T23:30:01.225Z,4.47
2018-05-09T23:32:27.406Z,4.40
2018-05-09T23:34:53.597Z,3.90
2018-05-09T23:37:19.784Z,5.50
2018-05-09T23:39:45.990Z,5.67
2018-05-09T23:42:12.918Z,6.10
2018-05-09T23:44:39.107Z,6.00
2018-05-09T23:47:05.281Z,5.93
2018-05-09T23:49:31.453Z,5.87
2018-05-09T23:51:57.669Z,6.13
2018-05-09T23:54:24.581Z,6.30
2018-05-09T23:56:50.785Z,6.07
2018-05-09T23:59:17.001Z,5.30
